Canton, Oklahoma
Current Conditions -  °F | °C
As of 4:55 PM on Thursday 23 Oct 2014 (Local Time) from KJWG Reporting Station
Clear Clear  
Wind Chill: 77°   Ceiling: Unl
Heat Index: 79°   Visibility: 10mi
Dew Point: 64°   Wind: 8mph
Humidity: 65%   Direction: 190°S
Pressure: 30.04"   Gusts: NA
Location:  36.05°N, 98.59°W
Report Text: KJWG 232155Z AUTO 19007KT 10SM CLR 25/18 A3004 RMK AO2 T02500179
Loading
Personal Weather Stations






























Interactive Weather Map
Tropical Storm Tracking
New forecast layout! Learn more

10-Day Weather Forecast

Advertisements
Track Severe Weather on mobile